Time;durP1;ratioP1;P1;durP2;ratioP2;P2;SDS_P1;SDS_P2;PMS_P1;PMS_P2;Temp;Humidity;BMP_temperature;BMP_pressure;BME280_temperature;BME280_humidity;BME280_pressure;Samples;Min_cycle;Max_cycle;Signal;HPM_P1;HPM_P2
2023/01/06 00:01:26;;;;;;;2.70;1.90;;;5.90;99.90;;;;;;5054699;28;20451;-68
2023/01/06 00:03:57;;;;;;;5.47;2.47;;;6.00;99.90;;;;;;5054909;28;20459;-67
2023/01/06 00:06:26;;;;;;;5.77;2.60;;;6.00;99.90;;;;;;5054975;28;20436;-66
2023/01/06 00:08:53;;;;;;;4.23;1.83;;;6.10;99.90;;;;;;5054851;28;20463;-67
2023/01/06 00:11:20;;;;;;;3.17;2.70;;;6.10;99.90;;;;;;5055372;28;20455;-67
2023/01/06 00:13:47;;;;;;;4.80;2.00;;;6.20;99.90;;;;;;5054421;28;20896;-70
2023/01/06 00:16:17;;;;;;;6.80;2.20;;;6.30;99.90;;;;;;5054573;28;20993;-67
2023/01/06 00:18:44;;;;;;;4.80;2.67;;;6.30;99.90;;;;;;5054799;28;20485;-68
2023/01/06 00:21:13;;;;;;;2.80;2.17;;;6.40;99.90;;;;;;5054671;28;20542;-69
2023/01/06 00:23:39;;;;;;;6.57;2.93;;;6.40;99.90;;;;;;5054571;28;20801;-68
2023/01/06 00:26:09;;;;;;;4.50;2.00;;;6.50;99.90;;;;;;5054520;28;20557;-68
2023/01/06 00:28:36;;;;;;;4.73;2.60;;;6.50;99.90;;;;;;5054544;28;20550;-68
2023/01/06 00:31:07;;;;;;;4.00;2.10;;;6.50;99.90;;;;;;5054548;28;20455;-69
2023/01/06 00:33:36;;;;;;;7.03;2.27;;;6.50;99.90;;;;;;5054517;28;20884;-68
2023/01/06 00:36:04;;;;;;;4.57;2.60;;;6.50;99.90;;;;;;5054821;28;20577;-68
2023/01/06 00:38:31;;;;;;;2.27;1.70;;;6.50;99.90;;;;;;5054594;28;20540;-69
2023/01/06 00:40:58;;;;;;;3.50;2.00;;;6.60;99.90;;;;;;5054007;28;20459;-69
2023/01/06 00:43:26;;;;;;;6.70;2.03;;;6.60;99.90;;;;;;5054348;28;20542;-68
2023/01/06 00:45:53;;;;;;;5.53;2.40;;;6.60;99.90;;;;;;5054631;28;20459;-68
2023/01/06 00:48:20;;;;;;;3.83;2.57;;;6.60;99.90;;;;;;5054622;28;20835;-68
2023/01/06 00:50:48;;;;;;;7.47;2.90;;;6.60;99.90;;;;;;5054111;28;20550;-68
2023/01/06 00:53:15;;;;;;;3.00;2.37;;;6.60;99.90;;;;;;5054056;28;20455;-69
2023/01/06 00:55:42;;;;;;;6.00;2.27;;;6.60;99.90;;;;;;5054025;28;20474;-68
2023/01/06 00:58:09;;;;;;;7.10;2.53;;;6.50;99.90;;;;;;5053989;28;20550;-67
2023/01/06 01:00:36;;;;;;;4.30;2.40;;;6.40;99.90;;;;;;5054004;28;20487;-68
2023/01/06 01:03:02;;;;;;;3.90;2.23;;;6.30;99.90;;;;;;5053886;28;20550;-67
2023/01/06 01:05:29;;;;;;;5.17;2.20;;;6.30;99.90;;;;;;5053727;28;20953;-69
2023/01/06 01:07:57;;;;;;;3.13;2.13;;;6.30;99.90;;;;;;5055428;28;20558;-69
2023/01/06 01:10:24;;;;;;;5.47;2.47;;;6.20;99.90;;;;;;5057485;28;20473;-68
2023/01/06 01:12:53;;;;;;;4.67;2.20;;;6.20;99.90;;;;;;5057343;28;20951;-67
2023/01/06 01:15:21;;;;;;;5.67;2.03;;;6.20;99.90;;;;;;5057865;28;20478;-68
2023/01/06 01:17:48;;;;;;;4.00;2.20;;;6.30;99.90;;;;;;5057563;28;20466;-68
2023/01/06 01:20:15;;;;;;;5.93;2.83;;;6.30;99.90;;;;;;5057568;28;20557;-68
2023/01/06 01:22:41;;;;;;;4.43;2.37;;;6.20;99.90;;;;;;5057250;28;20491;-68
2023/01/06 01:25:10;;;;;;;4.37;2.47;;;6.20;99.90;;;;;;5057488;28;20451;-69
2023/01/06 01:27:37;;;;;;;6.50;2.10;;;6.20;99.90;;;;;;5056964;28;20603;-67
2023/01/06 01:30:05;;;;;;;4.17;2.47;;;6.10;99.90;;;;;;5057138;28;20459;-68
2023/01/06 01:32:32;;;;;;;6.03;2.07;;;6.10;99.90;;;;;;5057120;28;20455;-68
2023/01/06 01:34:59;;;;;;;3.30;1.87;;;6.10;99.90;;;;;;5057181;28;20849;-68
2023/01/06 01:37:25;;;;;;;4.43;1.97;;;6.10;99.90;;;;;;5056768;28;20546;-68
2023/01/06 01:39:52;;;;;;;5.73;2.00;;;6.10;99.90;;;;;;5057046;28;20451;-68
2023/01/06 01:42:21;;;;;;;2.93;2.10;;;6.10;99.90;;;;;;5057018;28;20533;-68
2023/01/06 01:44:55;;;;;;;3.90;1.83;;;6.10;99.90;;;;;;5057179;28;20469;-66
2023/01/06 01:47:28;;;;;;;4.20;2.20;;;6.10;99.90;;;;;;5057103;28;20904;-68
2023/01/06 01:49:59;;;;;;;2.80;2.00;;;6.20;99.90;;;;;;5056957;28;20449;-67
2023/01/06 01:52:28;;;;;;;2.40;2.03;;;6.20;99.90;;;;;;5057259;28;20920;-68
2023/01/06 01:54:56;;;;;;;3.00;1.90;;;6.20;99.90;;;;;;5056740;28;20862;-67
2023/01/06 01:57:29;;;;;;;4.70;2.43;;;6.20;99.90;;;;;;5056620;28;20541;-67
2023/01/06 01:59:57;;;;;;;5.93;2.20;;;6.30;99.90;;;;;;5056740;28;20526;-67
2023/01/06 02:02:24;;;;;;;3.63;1.90;;;6.30;99.90;;;;;;5056939;28;20471;-68
2023/01/06 02:04:55;;;;;;;3.33;1.93;;;6.30;99.90;;;;;;5056509;28;20890;-67
2023/01/06 02:07:25;;;;;;;3.17;2.20;;;6.30;99.90;;;;;;5056890;28;20498;-66
2023/01/06 02:10:00;;;;;;;5.97;2.70;;;6.40;99.90;;;;;;5057221;28;20523;-67
2023/01/06 02:12:29;;;;;;;4.60;2.40;;;6.30;99.90;;;;;;5056726;28;20527;-68
2023/01/06 02:14:56;;;;;;;4.70;2.70;;;6.40;99.90;;;;;;5056914;28;20473;-67
2023/01/06 02:17:47;;;;;;;4.60;2.10;;;6.40;99.90;;;;;;5056979;28;20494;-67
2023/01/06 02:20:36;;;;;;;6.17;2.40;;;6.40;99.90;;;;;;5055941;28;20439;-68
2023/01/06 02:23:52;;;;;;;3.90;1.80;;;6.40;99.90;;;;;;5056649;28;20521;-68
2023/01/06 02:26:47;;;;;;;2.97;2.00;;;6.40;99.90;;;;;;5056856;28;20450;-68
2023/01/06 02:29:59;;;;;;;3.20;1.80;;;6.50;99.90;;;;;;5056527;28;20443;-67
2023/01/06 02:32:50;;;;;;;3.10;1.83;;;6.40;99.90;;;;;;5056007;28;20450;-66
2023/01/06 02:35:38;;;;;;;3.93;1.83;;;6.40;99.90;;;;;;5053857;28;20465;-67
2023/01/06 02:38:16;;;;;;;3.83;1.70;;;6.40;99.90;;;;;;5056712;28;20443;-68
2023/01/06 02:40:55;;;;;;;4.37;2.17;;;6.40;99.90;;;;;;5056506;28;20447;-68
2023/01/06 02:43:29;;;;;;;3.50;2.13;;;6.40;99.90;;;;;;5057388;28;20461;-69
2023/01/06 02:46:07;;;;;;;4.80;1.87;;;6.40;99.90;;;;;;5056818;28;20887;-68
2023/01/06 02:48:43;;;;;;;5.93;2.83;;;6.40;99.90;;;;;;5056175;28;20443;-68
2023/01/06 02:51:17;;;;;;;3.70;2.60;;;6.40;99.90;;;;;;5055570;28;20443;-68
2023/01/06 02:53:56;;;;;;;3.57;1.80;;;6.30;99.90;;;;;;5055514;28;20454;-68
2023/01/06 02:56:28;;;;;;;3.90;1.70;;;6.40;99.90;;;;;;5055840;28;20467;-68
2023/01/06 02:59:02;;;;;;;4.10;1.93;;;6.40;99.90;;;;;;5055613;28;20526;-68
2023/01/06 03:01:33;;;;;;;3.50;1.67;;;6.30;99.90;;;;;;5055727;28;20454;-68
2023/01/06 03:04:06;;;;;;;3.30;1.80;;;6.30;99.90;;;;;;5055838;28;20455;-68
2023/01/06 03:06:35;;;;;;;5.80;2.13;;;6.30;99.90;;;;;;5055362;28;20875;-69
2023/01/06 03:09:05;;;;;;;3.47;1.50;;;6.30;99.90;;;;;;5055558;28;20455;-67
2023/01/06 03:11:33;;;;;;;2.87;2.00;;;6.30;99.90;;;;;;5055590;28;20469;-69
2023/01/06 03:14:05;;;;;;;3.97;1.60;;;6.30;99.90;;;;;;5055265;28;20469;-68
2023/01/06 03:16:32;;;;;;;3.50;1.63;;;6.30;99.90;;;;;;5055041;28;20474;-69
2023/01/06 03:19:02;;;;;;;5.23;1.80;;;6.30;99.90;;;;;;5055201;28;20465;-67
2023/01/06 03:21:33;;;;;;;2.60;1.80;;;6.30;99.90;;;;;;5054863;28;20764;-68
2023/01/06 03:24:00;;;;;;;3.53;2.27;;;6.20;99.90;;;;;;5055219;28;20453;-67
2023/01/06 03:26:27;;;;;;;2.17;1.40;;;6.30;99.90;;;;;;5055183;28;20462;-68
2023/01/06 03:28:54;;;;;;;3.67;2.20;;;6.30;99.90;;;;;;5055214;28;20465;-68
2023/01/06 03:31:32;;;;;;;3.90;2.13;;;6.30;99.90;;;;;;5054840;28;20553;-67
2023/01/06 03:34:10;;;;;;;4.83;1.73;;;6.30;99.90;;;;;;5055083;28;20443;-68
2023/01/06 03:36:49;;;;;;;2.50;1.10;;;6.30;99.90;;;;;;5055145;28;20477;-67
2023/01/06 03:39:18;;;;;;;4.87;2.20;;;6.30;99.90;;;;;;5055095;28;20904;-69
2023/01/06 03:44:43;;;;;;;3.50;2.20;;;6.30;99.90;;;;;;5054492;28;20458;-68
2023/01/06 03:47:17;;;;;;;2.67;1.47;;;6.30;99.90;;;;;;5054809;28;20779;-68
2023/01/06 03:49:52;;;;;;;7.83;1.80;;;6.30;99.90;;;;;;5054819;28;20497;-68
2023/01/06 03:52:24;;;;;;;3.17;1.57;;;6.30;99.90;;;;;;5054496;28;20469;-67
2023/01/06 03:54:57;;;;;;;2.53;1.70;;;6.20;99.90;;;;;;5054842;28;20450;-68
2023/01/06 03:57:27;;;;;;;2.93;1.50;;;6.20;99.90;;;;;;5054793;28;20467;-67
2023/01/06 03:59:57;;;;;;;3.47;1.57;;;6.20;99.90;;;;;;5054790;28;20487;-68
2023/01/06 04:02:25;;;;;;;2.60;1.40;;;6.20;99.90;;;;;;5054575;28;20466;-68
2023/01/06 04:05:07;;;;;;;7.47;2.00;;;6.20;99.90;;;;;;5054185;28;20459;-66
2023/01/06 04:07:34;;;;;;;2.90;1.50;;;6.30;99.90;;;;;;5054155;28;20447;-68
2023/01/06 04:10:01;;;;;;;3.50;1.67;;;6.30;99.90;;;;;;5054244;28;20654;-68
2023/01/06 04:12:40;;;;;;;2.23;1.60;;;6.30;99.90;;;;;;5054248;28;20465;-69
2023/01/06 04:15:10;;;;;;;6.50;1.27;;;6.20;99.90;;;;;;5054475;28;20770;-68
2023/01/06 04:17:37;;;;;;;3.30;1.53;;;6.20;99.90;;;;;;5054162;28;20955;-68
2023/01/06 04:20:08;;;;;;;2.97;1.93;;;6.20;99.90;;;;;;5054148;28;20454;-69
2023/01/06 04:22:35;;;;;;;6.47;2.00;;;6.20;99.90;;;;;;5054140;28;20565;-68
2023/01/06 04:25:02;;;;;;;6.43;2.00;;;6.20;99.90;;;;;;5054318;28;20586;-67
2023/01/06 04:27:29;;;;;;;3.67;1.80;;;6.20;99.90;;;;;;5054266;28;20492;-67
2023/01/06 04:29:56;;;;;;;7.07;2.03;;;6.30;99.90;;;;;;5054281;28;20560;-67
2023/01/06 04:32:23;;;;;;;3.70;1.53;;;6.30;99.90;;;;;;5054292;28;20469;-68
2023/01/06 04:34:50;;;;;;;8.43;2.30;;;6.30;99.90;;;;;;5054357;28;20455;-68
2023/01/06 04:37:18;;;;;;;6.73;1.80;;;6.20;99.90;;;;;;5054311;28;20478;-68
2023/01/06 04:39:45;;;;;;;5.10;1.50;;;6.20;99.90;;;;;;5053998;28;20465;-68
2023/01/06 04:42:12;;;;;;;3.73;1.40;;;6.20;99.90;;;;;;5054339;28;20455;-67
2023/01/06 04:44:41;;;;;;;3.97;1.53;;;6.20;99.90;;;;;;5058247;28;20469;-68
2023/01/06 04:47:07;;;;;;;3.70;1.90;;;6.20;99.90;;;;;;5057962;28;20911;-68
2023/01/06 04:49:34;;;;;;;3.87;1.70;;;6.20;99.90;;;;;;5058440;28;20796;-68
2023/01/06 04:52:01;;;;;;;4.10;1.90;;;6.30;99.90;;;;;;5057974;28;21041;-67
2023/01/06 04:54:29;;;;;;;4.30;1.67;;;6.20;99.90;;;;;;5058392;28;20469;-67
2023/01/06 04:56:56;;;;;;;2.60;1.83;;;6.20;99.90;;;;;;5057922;28;20768;-68
2023/01/06 04:59:23;;;;;;;6.00;1.67;;;6.10;99.90;;;;;;5058204;28;20537;-66
2023/01/06 05:01:50;;;;;;;5.20;2.00;;;6.10;99.90;;;;;;5057978;28;20465;-69
2023/01/06 05:04:16;;;;;;;3.70;1.70;;;6.10;99.90;;;;;;5057268;28;20938;-68
2023/01/06 05:06:43;;;;;;;4.53;1.77;;;6.10;99.90;;;;;;5057854;28;20549;-68
2023/01/06 05:09:10;;;;;;;3.80;1.60;;;6.10;99.90;;;;;;5058651;28;20461;-68
2023/01/06 05:11:39;;;;;;;2.43;1.67;;;6.10;99.90;;;;;;5057355;28;20461;-68
2023/01/06 05:14:06;;;;;;;4.37;1.77;;;6.10;99.90;;;;;;5057468;28;20549;-67
2023/01/06 05:16:34;;;;;;;6.87;1.63;;;6.10;99.90;;;;;;5056932;28;20573;-69
2023/01/06 05:19:01;;;;;;;6.17;1.57;;;6.10;99.90;;;;;;5057264;28;20794;-68
2023/01/06 05:21:29;;;;;;;4.13;2.00;;;6.10;99.90;;;;;;5056724;28;20950;-68
2023/01/06 05:23:56;;;;;;;5.83;1.93;;;6.20;99.90;;;;;;5057457;28;20439;-68
2023/01/06 05:26:24;;;;;;;5.63;1.70;;;6.20;99.90;;;;;;5057288;28;20542;-67
2023/01/06 05:28:53;;;;;;;5.67;1.70;;;6.30;99.90;;;;;;5057396;28;20542;-67
2023/01/06 05:31:20;;;;;;;3.90;1.80;;;6.30;99.90;;;;;;5057202;28;20550;-66
2023/01/06 05:33:47;;;;;;;4.70;1.80;;;6.20;99.90;;;;;;5056730;28;20550;-68
2023/01/06 05:36:16;;;;;;;3.70;1.67;;;6.20;99.90;;;;;;5057150;28;20841;-67
2023/01/06 05:38:43;;;;;;;3.07;2.00;;;6.20;99.90;;;;;;5057281;28;20542;-69
2023/01/06 05:41:10;;;;;;;3.83;1.83;;;6.20;99.90;;;;;;5056932;28;20450;-68
2023/01/06 05:43:38;;;;;;;7.93;2.47;;;6.20;99.90;;;;;;5056852;28;20558;-67
2023/01/06 05:46:08;;;;;;;8.50;2.17;;;6.20;99.90;;;;;;5056606;28;20455;-68
2023/01/06 05:48:35;;;;;;;4.30;2.23;;;6.20;99.90;;;;;;5056517;28;20465;-68
2023/01/06 05:51:02;;;;;;;6.20;2.00;;;6.20;99.90;;;;;;5056783;28;20545;-68
2023/01/06 05:53:32;;;;;;;3.63;2.20;;;6.20;99.90;;;;;;5056947;28;20462;-68
2023/01/06 05:56:00;;;;;;;2.83;2.20;;;6.20;99.90;;;;;;5057200;28;20778;-67
2023/01/06 05:58:27;;;;;;;6.30;3.40;;;6.20;99.90;;;;;;5056221;28;20513;-68
2023/01/06 06:00:54;;;;;;;5.10;2.20;;;6.30;99.90;;;;;;5056693;28;20489;-68
2023/01/06 06:03:22;;;;;;;5.53;2.10;;;6.20;99.90;;;;;;5056752;28;20455;-69
2023/01/06 06:05:49;;;;;;;3.43;2.50;;;6.20;99.90;;;;;;5056312;28;20459;-69
2023/01/06 06:08:16;;;;;;;5.63;3.20;;;6.20;99.90;;;;;;5056685;28;20551;-68
2023/01/06 06:10:43;;;;;;;9.00;4.23;;;6.30;99.90;;;;;;5056619;28;20549;-69
2023/01/06 06:13:10;;;;;;;3.40;2.10;;;6.30;99.90;;;;;;5056431;28;20538;-68
2023/01/06 06:15:37;;;;;;;8.10;2.60;;;6.30;99.90;;;;;;5056178;28;20459;-68
2023/01/06 06:18:04;;;;;;;3.77;2.23;;;6.30;99.90;;;;;;5056228;28;20489;-68
2023/01/06 06:20:32;;;;;;;3.93;2.30;;;6.30;99.90;;;;;;5056228;28;20452;-68
2023/01/06 06:22:59;;;;;;;5.30;2.13;;;6.30;99.90;;;;;;5056277;28;20501;-69
2023/01/06 06:25:28;;;;;;;4.30;2.87;;;6.30;99.90;;;;;;5056390;28;20935;-67
2023/01/06 06:27:58;;;;;;;4.80;2.03;;;6.40;99.90;;;;;;5056175;28;20550;-68
2023/01/06 06:30:24;;;;;;;6.67;2.30;;;6.30;99.90;;;;;;5056360;28;20485;-69
2023/01/06 06:32:51;;;;;;;5.80;2.53;;;6.40;99.90;;;;;;5057208;28;20549;-68
2023/01/06 06:35:18;;;;;;;5.10;2.70;;;6.30;99.90;;;;;;5056183;28;20459;-68
2023/01/06 06:37:47;;;;;;;4.87;3.17;;;6.30;99.90;;;;;;5055617;28;20475;-68
2023/01/06 06:40:14;;;;;;;5.00;2.43;;;6.30;99.90;;;;;;5055819;28;20468;-68
2023/01/06 06:42:41;;;;;;;6.97;2.70;;;6.20;99.90;;;;;;5055731;28;20451;-68
2023/01/06 06:45:09;;;;;;;6.30;3.40;;;6.30;99.90;;;;;;5056016;28;20550;-67
2023/01/06 06:47:36;;;;;;;12.23;2.97;;;6.30;99.90;;;;;;5056083;28;20447;-68
2023/01/06 06:50:03;;;;;;;4.13;2.40;;;6.30;99.90;;;;;;5056092;28;20858;-67
2023/01/06 06:52:29;;;;;;;4.60;2.80;;;6.20;99.90;;;;;;5055727;28;20916;-68
2023/01/06 06:54:58;;;;;;;5.70;3.33;;;6.20;99.90;;;;;;5056005;28;20465;-67
2023/01/06 06:57:24;;;;;;;3.80;2.60;;;6.20;99.90;;;;;;5055631;28;20486;-67
2023/01/06 06:59:51;;;;;;;7.47;3.40;;;6.20;99.90;;;;;;5055938;28;20549;-69
2023/01/06 07:02:18;;;;;;;5.00;3.10;;;6.20;99.90;;;;;;5055746;28;20455;-68
2023/01/06 07:04:45;;;;;;;7.80;3.50;;;6.10;99.90;;;;;;5055475;28;20550;-69
2023/01/06 07:07:12;;;;;;;8.03;4.30;;;6.10;99.90;;;;;;5055689;28;20782;-68
2023/01/06 07:09:39;;;;;;;8.03;3.83;;;6.10;99.90;;;;;;5055649;28;20481;-68
2023/01/06 07:12:08;;;;;;;5.77;3.93;;;6.10;99.90;;;;;;5055469;28;20549;-68
2023/01/06 07:14:34;;;;;;;7.20;3.43;;;6.10;99.90;;;;;;5055224;28;20463;-69
2023/01/06 07:17:02;;;;;;;8.50;3.70;;;6.10;99.90;;;;;;5055270;28;20479;-68
2023/01/06 07:19:28;;;;;;;8.60;3.40;;;6.10;99.90;;;;;;5054966;28;21030;-68
2023/01/06 07:21:55;;;;;;;7.17;3.80;;;6.10;99.90;;;;;;5054791;28;20497;-67
2023/01/06 07:24:22;;;;;;;10.00;4.07;;;6.10;99.90;;;;;;5055027;28;20546;-69
2023/01/06 07:26:49;;;;;;;11.07;4.93;;;6.10;99.90;;;;;;5055062;28;20546;-70
2023/01/06 07:29:17;;;;;;;8.80;4.70;;;6.00;99.90;;;;;;5054688;28;20994;-68
2023/01/06 07:31:44;;;;;;;7.67;4.53;;;6.00;99.90;;;;;;5054625;28;20546;-68
2023/01/06 07:34:11;;;;;;;10.60;4.33;;;6.00;99.90;;;;;;5054495;28;20455;-68
2023/01/06 07:36:38;;;;;;;10.90;6.03;;;6.00;99.90;;;;;;5054449;28;20458;-69
2023/01/06 07:39:05;;;;;;;9.00;5.20;;;6.00;99.90;;;;;;5054953;28;20495;-68
2023/01/06 07:41:32;;;;;;;15.40;5.70;;;6.00;99.90;;;;;;5055032;28;20487;-67
2023/01/06 07:43:59;;;;;;;13.20;5.60;;;6.10;99.90;;;;;;5055055;28;20451;-68
2023/01/06 07:46:27;;;;;;;9.00;6.37;;;6.10;99.90;;;;;;5054604;28;20555;-68
2023/01/06 07:48:54;;;;;;;14.97;6.10;;;6.10;99.90;;;;;;5054748;28;20455;-69
2023/01/06 07:51:21;;;;;;;11.77;6.10;;;6.20;99.90;;;;;;5054792;28;20852;-68
2023/01/06 07:53:48;;;;;;;10.13;6.80;;;6.20;99.90;;;;;;5054409;28;20461;-68
2023/01/06 07:56:14;;;;;;;6.40;5.80;;;6.20;99.90;;;;;;5054508;28;20455;-69
2023/01/06 07:58:41;;;;;;;9.77;7.20;;;6.20;99.90;;;;;;5054441;28;20498;-69
2023/01/06 08:01:08;;;;;;;12.63;6.73;;;6.20;99.90;;;;;;5054235;28;20892;-69
2023/01/06 08:03:37;;;;;;;15.30;7.30;;;6.20;99.90;;;;;;5054568;28;20455;-70
2023/01/06 08:06:07;;;;;;;10.67;7.10;;;6.20;99.90;;;;;;5054335;28;20625;-68
2023/01/06 08:08:36;;;;;;;11.67;8.00;;;6.30;99.90;;;;;;5054823;28;20506;-67
2023/01/06 08:11:03;;;;;;;10.57;7.23;;;6.30;99.90;;;;;;5054327;28;20546;-68
2023/01/06 08:13:30;;;;;;;12.30;7.30;;;6.40;99.90;;;;;;5054556;28;20455;-69
2023/01/06 08:15:56;;;;;;;17.20;7.80;;;6.50;99.90;;;;;;5054465;28;20765;-68
2023/01/06 08:18:23;;;;;;;11.63;6.70;;;6.50;99.90;;;;;;5056992;28;20828;-68
2023/01/06 08:20:51;;;;;;;15.00;8.00;;;6.50;99.90;;;;;;5059070;28;20786;-68
2023/01/06 08:23:18;;;;;;;10.37;7.80;;;6.50;99.90;;;;;;5058434;28;20566;-68
2023/01/06 08:25:45;;;;;;;11.37;8.03;;;6.50;99.90;;;;;;5059266;28;20599;-68
2023/01/06 08:28:12;;;;;;;13.60;8.27;;;6.50;99.90;;;;;;5058756;28;20926;-70
2023/01/06 08:30:40;;;;;;;14.53;9.00;;;6.50;99.90;;;;;;5058377;28;20558;-69
2023/01/06 08:33:07;;;;;;;11.40;7.90;;;6.50;99.90;;;;;;5058260;28;20458;-69
2023/01/06 08:35:34;;;;;;;15.57;8.10;;;6.50;99.90;;;;;;5058253;28;20933;-68
2023/01/06 08:38:02;;;;;;;14.27;8.47;;;6.60;99.90;;;;;;5057897;28;20776;-69
2023/01/06 08:40:29;;;;;;;12.60;7.33;;;6.70;99.90;;;;;;5058266;28;20455;-69
2023/01/06 08:42:56;;;;;;;13.60;8.20;;;6.70;99.90;;;;;;5057716;28;20459;-69
2023/01/06 08:45:23;;;;;;;18.10;9.87;;;6.80;99.90;;;;;;5058081;28;20764;-69
2023/01/06 08:47:50;;;;;;;10.83;8.00;;;6.80;99.90;;;;;;5057616;28;20967;-68
2023/01/06 08:50:17;;;;;;;14.30;8.47;;;6.80;99.90;;;;;;5057863;28;20458;-69
2023/01/06 08:52:43;;;;;;;12.67;8.57;;;6.70;99.90;;;;;;5057611;28;20534;-69
2023/01/06 08:55:12;;;;;;;13.67;8.70;;;6.80;99.90;;;;;;5057810;28;20927;-68
2023/01/06 08:57:39;;;;;;;17.30;9.10;;;6.80;99.90;;;;;;5057578;28;20474;-68
2023/01/06 09:00:07;;;;;;;15.30;8.93;;;6.80;99.90;;;;;;5058026;28;20469;-69
2023/01/06 09:02:34;;;;;;;19.63;9.13;;;6.80;99.90;;;;;;5058042;28;20498;-69
2023/01/06 09:05:01;;;;;;;14.23;9.67;;;6.70;99.90;;;;;;5058050;28;20542;-69
2023/01/06 09:07:28;;;;;;;17.27;9.97;;;6.80;99.90;;;;;;5057885;28;20516;-69
2023/01/06 09:09:55;;;;;;;12.57;9.03;;;6.90;99.90;;;;;;5057788;28;20454;-68
2023/01/06 09:12:23;;;;;;;19.27;10.03;;;6.80;99.90;;;;;;5057945;28;20455;-68
2023/01/06 09:14:50;;;;;;;14.73;9.93;;;6.80;99.90;;;;;;5057874;28;20541;-69
2023/01/06 09:17:17;;;;;;;20.47;10.27;;;6.90;99.90;;;;;;5057284;28;20568;-68
2023/01/06 09:19:44;;;;;;;13.90;9.70;;;6.90;99.90;;;;;;5057498;28;20588;-68
2023/01/06 09:22:11;;;;;;;21.23;11.97;;;6.90;99.90;;;;;;5057130;28;20494;-67
2023/01/06 09:24:38;;;;;;;15.03;11.40;;;6.90;99.90;;;;;;5057024;28;20784;-70
2023/01/06 09:27:05;;;;;;;15.30;10.93;;;6.90;99.90;;;;;;5057263;28;20951;-68
2023/01/06 09:29:33;;;;;;;18.00;11.10;;;6.90;99.90;;;;;;5056821;28;20455;-69
2023/01/06 09:32:00;;;;;;;17.73;10.97;;;6.90;99.90;;;;;;5057499;28;20520;-70
2023/01/06 09:34:27;;;;;;;16.10;10.90;;;7.00;99.90;;;;;;5057256;28;20455;-67
2023/01/06 09:36:53;;;;;;;20.03;12.10;;;7.00;99.90;;;;;;5057789;28;20463;-67
2023/01/06 09:39:20;;;;;;;19.37;12.00;;;7.10;99.90;;;;;;5057268;28;20578;-69
2023/01/06 09:42:13;;;;;;;16.20;11.33;;;7.20;99.90;;;;;;5056937;28;20454;-68
2023/01/06 09:44:48;;;;;;;17.70;10.93;;;7.30;99.90;;;;;;5057296;28;20450;-69
2023/01/06 09:47:18;;;;;;;19.27;12.00;;;7.30;99.90;;;;;;5056915;28;20902;-68
2023/01/06 09:49:49;;;;;;;17.07;11.27;;;7.40;99.90;;;;;;5057050;28;20485;-69
2023/01/06 09:52:23;;;;;;;18.10;12.20;;;7.40;99.90;;;;;;5056917;28;20792;-69
2023/01/06 09:54:56;;;;;;;16.73;11.27;;;7.50;99.90;;;;;;5056623;28;20465;-69
2023/01/06 09:57:30;;;;;;;21.57;11.57;;;7.50;99.90;;;;;;5057087;28;20440;-69
2023/01/06 10:00:02;;;;;;;19.10;11.60;;;7.50;99.90;;;;;;5057035;28;20453;-69
2023/01/06 10:02:33;;;;;;;18.43;12.23;;;7.60;99.90;;;;;;5056660;28;20454;-68
2023/01/06 10:05:00;;;;;;;17.53;12.27;;;7.60;99.90;;;;;;5056780;28;20497;-69
2023/01/06 10:07:32;;;;;;;22.10;15.23;;;7.70;99.90;;;;;;5064994;28;20458;-68
2023/01/06 10:10:14;;;;;;;18.57;12.50;;;7.80;99.90;;;;;;5076639;28;20442;-69
2023/01/06 10:12:52;;;;;;;17.07;11.37;;;7.80;99.90;;;;;;5076751;28;20548;-68
2023/01/06 10:15:29;;;;;;;16.33;11.63;;;7.80;99.90;;;;;;5076422;28;20438;-68
2023/01/06 10:18:08;;;;;;;15.73;10.00;;;7.80;99.90;;;;;;5076433;28;20468;-68
2023/01/06 10:20:51;;;;;;;15.40;10.93;;;7.90;99.90;;;;;;5076186;28;20439;-68
2023/01/06 10:23:49;;;;;;;18.10;10.70;;;7.90;99.90;;;;;;5075940;28;20573;-67
2023/01/06 10:26:23;;;;;;;18.13;12.13;;;8.00;99.90;;;;;;5076354;28;20518;-68
2023/01/06 10:28:52;;;;;;;21.20;10.17;;;8.00;99.90;;;;;;5056920;28;20475;-68
2023/01/06 10:31:25;;;;;;;16.63;9.50;;;8.10;99.90;;;;;;5055695;28;20459;-69
2023/01/06 10:33:54;;;;;;;15.87;11.10;;;8.10;99.90;;;;;;5055896;28;20462;-69
2023/01/06 10:36:26;;;;;;;22.10;12.50;;;8.10;99.90;;;;;;5055775;28;20455;-68
2023/01/06 10:38:55;;;;;;;17.07;11.73;;;8.20;99.90;;;;;;5056118;28;20564;-69
2023/01/06 10:41:34;;;;;;;13.10;10.10;;;8.30;99.90;;;;;;5054944;28;20469;-69
2023/01/06 10:44:01;;;;;;;14.83;10.07;;;8.40;99.90;;;;;;5055905;28;20865;-69
2023/01/06 10:46:33;;;;;;;21.43;11.50;;;8.40;99.90;;;;;;5056199;28;20455;-69
2023/01/06 10:49:00;;;;;;;16.10;10.80;;;8.50;99.90;;;;;;5055687;28;20454;-68
2023/01/06 10:51:35;;;;;;;13.80;10.30;;;8.50;99.90;;;;;;5055299;28;20941;-69
2023/01/06 10:54:05;;;;;;;16.17;10.97;;;8.60;99.90;;;;;;5055894;28;20442;-68
2023/01/06 10:56:33;;;;;;;15.50;11.40;;;8.60;99.90;;;;;;5055836;28;20451;-67
2023/01/06 10:59:06;;;;;;;18.90;11.20;;;8.60;99.90;;;;;;5055228;28;20487;-67
2023/01/06 11:01:37;;;;;;;12.93;10.33;;;8.70;99.90;;;;;;5055600;28;20832;-69
2023/01/06 11:04:10;;;;;;;13.90;11.03;;;8.80;99.90;;;;;;5055673;28;20453;-68
2023/01/06 11:06:40;;;;;;;13.70;9.30;;;8.80;99.90;;;;;;5055206;28;20444;-69
2023/01/06 11:09:09;;;;;;;13.63;9.70;;;8.90;99.90;;;;;;5055078;28;20455;-68
2023/01/06 11:11:47;;;;;;;12.17;9.40;;;8.90;99.90;;;;;;5054969;28;20531;-68
2023/01/06 11:14:18;;;;;;;20.00;11.17;;;8.90;99.90;;;;;;5054966;28;20440;-69
2023/01/06 11:16:54;;;;;;;15.50;10.37;;;8.90;99.90;;;;;;5055054;28;20443;-68
2023/01/06 11:19:31;;;;;;;15.60;9.80;;;9.00;99.90;;;;;;5055325;28;20477;-69
2023/01/06 11:21:58;;;;;;;14.50;8.83;;;9.00;99.90;;;;;;5054930;28;20518;-69
2023/01/06 11:24:26;;;;;;;11.50;8.43;;;9.00;99.90;;;;;;5054784;28;20481;-68
2023/01/06 11:26:54;;;;;;;12.27;9.30;;;8.90;99.90;;;;;;5055203;28;20542;-68
2023/01/06 11:29:28;;;;;;;11.30;9.40;;;8.90;99.90;;;;;;5055458;28;20780;-68
2023/01/06 11:31:59;;;;;;;16.00;9.90;;;9.00;99.90;;;;;;5055014;28;20546;-69
2023/01/06 11:34:27;;;;;;;14.50;9.63;;;9.00;99.90;;;;;;5054756;28;20497;-69
2023/01/06 11:36:55;;;;;;;15.53;10.17;;;9.00;99.90;;;;;;5054928;28;20455;-68
2023/01/06 11:39:26;;;;;;;13.77;9.70;;;9.10;99.90;;;;;;5054604;28;20479;-68
2023/01/06 11:41:56;;;;;;;12.43;9.47;;;9.10;99.90;;;;;;5054805;28;20465;-68
2023/01/06 11:44:29;;;;;;;13.53;10.03;;;9.10;99.90;;;;;;5054988;28;20904;-68
2023/01/06 11:47:00;;;;;;;12.03;9.80;;;9.10;99.90;;;;;;5055375;28;20443;-68
2023/01/06 11:49:31;;;;;;;14.23;9.10;;;9.10;99.90;;;;;;5055012;28;20475;-68
2023/01/06 11:52:03;;;;;;;14.67;9.77;;;9.20;99.90;;;;;;5054486;28;20443;-69
2023/01/06 11:54:33;;;;;;;12.43;8.93;;;9.20;99.90;;;;;;5054126;28;20455;-68
2023/01/06 11:57:07;;;;;;;13.23;9.70;;;9.30;99.90;;;;;;5054208;28;20482;-69
2023/01/06 11:59:46;;;;;;;11.87;9.30;;;9.30;99.90;;;;;;5054682;28;20471;-68
2023/01/06 12:02:22;;;;;;;13.70;8.57;;;9.40;99.90;;;;;;5054400;28;20519;-68
2023/01/06 12:04:52;;;;;;;11.53;8.00;;;9.40;99.90;;;;;;5054254;28;20922;-68
2023/01/06 12:07:25;;;;;;;12.10;8.80;;;9.40;99.90;;;;;;5054649;28;20534;-68
2023/01/06 12:09:55;;;;;;;16.83;9.30;;;9.50;99.90;;;;;;5054774;28;20505;-69
2023/01/06 12:12:26;;;;;;;11.43;8.17;;;9.50;99.90;;;;;;5054527;28;20460;-69
2023/01/06 12:14:54;;;;;;;11.07;8.20;;;9.50;99.90;;;;;;5054257;28;20471;-69
2023/01/06 12:17:41;;;;;;;12.47;8.30;;;9.50;99.90;;;;;;5054207;28;20465;-69
2023/01/06 12:20:15;;;;;;;11.83;7.80;;;9.50;99.90;;;;;;5054361;28;20634;-68
2023/01/06 12:22:46;;;;;;;10.40;7.97;;;9.60;99.90;;;;;;5054347;28;20491;-68
2023/01/06 12:25:18;;;;;;;10.60;7.17;;;9.60;99.90;;;;;;5054219;28;20556;-69
2023/01/06 12:27:49;;;;;;;11.30;7.77;;;9.70;99.90;;;;;;5054702;28;20838;-68
2023/01/06 12:30:21;;;;;;;9.20;6.37;;;9.70;99.90;;;;;;5054215;28;20459;-69
2023/01/06 12:32:53;;;;;;;13.80;6.37;;;9.80;99.90;;;;;;5054745;28;20756;-69
2023/01/06 12:35:26;;;;;;;10.87;6.90;;;9.80;99.90;;;;;;5054457;28;20531;-68
2023/01/06 12:37:55;;;;;;;13.93;6.73;;;9.80;99.90;;;;;;5054109;28;20490;-69
2023/01/06 12:40:29;;;;;;;11.47;6.63;;;9.80;99.90;;;;;;5054264;28;20489;-68
2023/01/06 12:43:03;;;;;;;7.77;5.90;;;9.90;99.90;;;;;;5054842;28;20444;-67
2023/01/06 12:45:39;;;;;;;7.33;5.33;;;9.80;99.90;;;;;;5053670;28;20496;-68
2023/01/06 12:48:16;;;;;;;9.60;6.57;;;9.80;99.90;;;;;;5054387;28;20824;-68
2023/01/06 12:50:47;;;;;;;12.50;6.17;;;9.80;99.90;;;;;;5054070;28;20522;-67
2023/01/06 12:53:24;;;;;;;7.70;5.90;;;9.90;99.90;;;;;;5054302;28;20522;-68
2023/01/06 12:56:01;;;;;;;6.70;5.27;;;9.90;99.90;;;;;;5054296;28;20439;-68
2023/01/06 12:58:38;;;;;;;5.30;4.63;;;9.90;99.90;;;;;;5053832;28;20862;-68
2023/01/06 13:01:09;;;;;;;7.27;5.47;;;9.90;99.90;;;;;;5054231;28;20443;-67
2023/01/06 13:04:14;;;;;;;8.03;4.80;;;9.90;99.90;;;;;;5055878;28;20522;-68
2023/01/06 13:07:03;;;;;;;5.70;4.83;;;10.00;99.90;;;;;;5055651;28;20457;-68
2023/01/06 13:09:40;;;;;;;6.00;4.40;;;10.00;99.90;;;;;;5058779;28;20529;-68